Bromsgrove, United Kingdom
Current Conditions -  °F | °C
As of 3:50 PM on Friday 28 Nov 2014 (Local Time) from EGBB Reporting Station
Haze Haze  
Wind Chill: 50°   Ceiling: 600
Heat Index: 50°   Visibility: 3mi
Dew Point: 50°   Wind: 9mph
Humidity: 100%   Direction: 60°ENE
Pressure: 29.65"   Gusts: NA
Location:  52.36°N, 2.01°W
Report Text: EGBB 281550Z 06008KT 5000 BR BKN006 OVC009 10/10 Q1004
Loading
Personal Weather Stations






























Interactive Weather Map New forecast layout! Learn more

10-Day Weather Forecast

Advertisements
Track Severe Weather on mobile